createdAt,value
2016-12-07T00:00:09.895Z,925.39
2016-12-07T00:00:38.318Z,925.44
2016-12-07T00:01:06.501Z,925.44
2016-12-07T00:01:34.610Z,925.42
2016-12-07T00:02:03.112Z,925.41
2016-12-07T00:02:31.515Z,925.42
2016-12-07T00:02:59.742Z,925.42
2016-12-07T00:03:27.610Z,925.42
2016-12-07T00:03:55.801Z,925.43
2016-12-07T00:04:23.641Z,925.45
2016-12-07T00:04:51.818Z,925.43
2016-12-07T00:05:19.569Z,925.44
2016-12-07T00:05:47.646Z,925.45
2016-12-07T00:06:15.727Z,925.45
2016-12-07T00:06:43.442Z,925.46
2016-12-07T00:07:12.021Z,925.48
2016-12-07T00:07:39.867Z,925.49
2016-12-07T00:08:07.826Z,925.5
2016-12-07T00:08:35.685Z,925.51
2016-12-07T00:09:18.392Z,925.54
2016-12-07T00:09:46.248Z,925.54
2016-12-07T00:10:56.858Z,925.56
2016-12-07T00:11:24.673Z,925.55
2016-12-07T00:11:52.743Z,925.54
2016-12-07T00:12:20.637Z,925.51
2016-12-07T00:12:48.403Z,925.54
2016-12-07T00:13:16.478Z,925.53
2016-12-07T00:13:44.670Z,925.52
2016-12-07T00:14:13.235Z,925.51
2016-12-07T00:14:41.009Z,925.52
2016-12-07T00:15:09.360Z,925.49
2016-12-07T00:15:37.421Z,925.5
2016-12-07T00:16:05.216Z,925.53
2016-12-07T00:16:34.146Z,925.52
2016-12-07T00:17:01.961Z,925.52
2016-12-07T00:17:29.863Z,925.53
2016-12-07T00:17:57.727Z,925.57
2016-12-07T00:18:25.951Z,925.58
2016-12-07T00:18:54.098Z,925.61
2016-12-07T00:19:21.936Z,925.6
2016-12-07T00:19:49.707Z,925.6
2016-12-07T00:20:17.700Z,925.63
2016-12-07T00:20:45.827Z,925.64
2016-12-07T00:21:13.693Z,925.61
2016-12-07T00:21:41.565Z,925.62
2016-12-07T00:22:09.356Z,925.64
2016-12-07T00:22:37.235Z,925.63
2016-12-07T00:23:05.050Z,925.65
2016-12-07T00:23:33.498Z,925.6
2016-12-07T00:24:01.447Z,925.69
2016-12-07T00:24:29.374Z,925.63
2016-12-07T00:25:11.883Z,925.64
2016-12-07T00:25:54.370Z,925.64
2016-12-07T00:26:22.219Z,925.68
2016-12-07T00:26:50.043Z,925.67
2016-12-07T00:27:18.314Z,925.73
2016-12-07T00:27:46.184Z,925.73
2016-12-07T00:28:14.626Z,925.79
2016-12-07T00:28:42.593Z,925.74
2016-12-07T00:29:11.024Z,925.78
2016-12-07T00:29:39.248Z,925.78
2016-12-07T00:30:07.392Z,925.82
2016-12-07T00:30:35.151Z,925.79
2016-12-07T00:31:02.892Z,925.84
2016-12-07T00:31:31.006Z,925.82
2016-12-07T00:31:58.822Z,925.83
2016-12-07T00:32:26.671Z,925.9
2016-12-07T00:32:55.118Z,925.85
2016-12-07T00:33:37.913Z,925.85
2016-12-07T00:34:05.784Z,925.86
2016-12-07T00:34:33.645Z,925.87
2016-12-07T00:35:01.505Z,925.85
2016-12-07T00:35:29.675Z,925.89
2016-12-07T00:35:57.500Z,925.9
2016-12-07T00:36:25.648Z,925.93
2016-12-07T00:36:53.472Z,925.88
2016-12-07T00:37:21.673Z,925.88
2016-12-07T00:37:49.895Z,925.86
2016-12-07T00:38:17.691Z,925.86
2016-12-07T00:38:45.499Z,925.86
2016-12-07T00:39:13.352Z,925.81
2016-12-07T00:39:41.440Z,925.8
2016-12-07T00:40:09.850Z,925.78
2016-12-07T00:40:37.956Z,925.75
2016-12-07T00:41:05.767Z,925.75
2016-12-07T00:41:33.578Z,925.72
2016-12-07T00:42:01.376Z,925.74
2016-12-07T00:42:29.112Z,925.67
2016-12-07T00:42:56.929Z,925.7
2016-12-07T00:43:25.040Z,925.69
2016-12-07T00:43:52.835Z,925.67
2016-12-07T00:44:20.958Z,925.67
2016-12-07T00:44:49.117Z,925.68
2016-12-07T00:45:16.995Z,925.7
2016-12-07T00:45:45.221Z,925.72
2016-12-07T00:46:13.099Z,925.7
2016-12-07T00:46:40.864Z,925.74
2016-12-07T00:47:08.705Z,925.74
2016-12-07T00:47:37.378Z,925.73
2016-12-07T00:48:05.103Z,925.75
2016-12-07T00:48:32.914Z,925.69
2016-12-07T00:49:00.737Z,925.79
2016-12-07T00:49:28.575Z,925.74
2016-12-07T00:49:56.430Z,925.71
2016-12-07T00:50:24.189Z,925.75
2016-12-07T00:50:52.009Z,925.7
2016-12-07T00:51:19.785Z,925.69
2016-12-07T00:51:48.210Z,925.72
2016-12-07T00:52:16.027Z,925.69
2016-12-07T00:52:44.472Z,925.68
2016-12-07T00:53:12.637Z,925.72
2016-12-07T00:53:40.776Z,925.7
2016-12-07T00:54:08.494Z,925.68
2016-12-07T00:54:36.311Z,925.75
2016-12-07T00:55:04.530Z,925.72
2016-12-07T00:55:32.376Z,925.79
2016-12-07T00:56:00.498Z,925.77
2016-12-07T00:56:28.336Z,925.73
2016-12-07T00:56:56.209Z,925.77
2016-12-07T00:57:24.272Z,925.76
2016-12-07T00:57:52.475Z,925.73
2016-12-07T00:58:20.978Z,925.75
2016-12-07T00:58:48.849Z,925.73
2016-12-07T00:59:16.953Z,925.72
2016-12-07T00:59:44.800Z,925.73
2016-12-07T01:00:12.621Z,925.74
2016-12-07T01:00:40.698Z,925.74
2016-12-07T01:01:08.481Z,925.71
2016-12-07T01:01:36.318Z,925.69
2016-12-07T01:02:04.129Z,925.73
2016-12-07T01:02:31.964Z,925.71
2016-12-07T01:02:59.740Z,925.74
2016-12-07T01:03:27.884Z,925.71
2016-12-07T01:03:55.826Z,925.71
2016-12-07T01:04:23.633Z,925.75
2016-12-07T01:04:51.770Z,925.75
2016-12-07T01:05:19.955Z,925.75
2016-12-07T01:05:47.754Z,925.74
2016-12-07T01:06:15.898Z,925.74
2016-12-07T01:06:44.058Z,925.74
2016-12-07T01:07:11.896Z,925.77
2016-12-07T01:07:39.620Z,925.74
2016-12-07T01:08:07.782Z,925.77
2016-12-07T01:08:35.592Z,925.83
2016-12-07T01:09:03.446Z,925.82
2016-12-07T01:09:31.214Z,925.83
2016-12-07T01:09:59.013Z,925.83
2016-12-07T01:10:26.799Z,925.81
2016-12-07T01:10:54.924Z,925.8
2016-12-07T01:11:22.719Z,925.83
2016-12-07T01:11:50.804Z,925.82
2016-12-07T01:12:18.636Z,925.81
2016-12-07T01:12:46.927Z,925.79
2016-12-07T01:13:14.762Z,925.81
2016-12-07T01:13:42.627Z,925.8
2016-12-07T01:14:10.475Z,925.77
2016-12-07T01:14:38.697Z,925.73
2016-12-07T01:15:06.446Z,925.79
2016-12-07T01:15:34.594Z,925.76
2016-12-07T01:16:02.455Z,925.74
2016-12-07T01:16:30.319Z,925.73
2016-12-07T01:16:58.730Z,925.68
2016-12-07T01:17:26.852Z,925.71
2016-12-07T01:17:55.037Z,925.7
2016-12-07T01:18:23.608Z,925.7
2016-12-07T01:18:52.067Z,925.67
2016-12-07T01:19:19.879Z,925.66
2016-12-07T01:19:47.724Z,925.66
2016-12-07T01:20:15.551Z,925.64
2016-12-07T01:20:43.740Z,925.66
2016-12-07T01:21:11.544Z,925.59
2016-12-07T01:21:39.605Z,925.63
2016-12-07T01:22:07.947Z,925.63
2016-12-07T01:22:35.784Z,925.6
2016-12-07T01:23:03.876Z,925.64
2016-12-07T01:23:31.615Z,925.62
2016-12-07T01:23:59.801Z,925.62
2016-12-07T01:24:27.648Z,925.55
2016-12-07T01:24:55.434Z,925.58
2016-12-07T01:25:23.950Z,925.59
2016-12-07T01:25:52.299Z,925.55
2016-12-07T01:26:20.115Z,925.59
2016-12-07T01:26:47.978Z,925.55
2016-12-07T01:27:15.797Z,925.54
2016-12-07T01:27:43.581Z,925.54
2016-12-07T01:28:12.090Z,925.53
2016-12-07T01:28:40.197Z,925.5
2016-12-07T01:29:07.926Z,925.5
2016-12-07T01:29:35.760Z,925.47
2016-12-07T01:30:03.582Z,925.5
2016-12-07T01:30:31.733Z,925.45
2016-12-07T01:30:59.905Z,925.47
2016-12-07T01:31:27.669Z,925.44
2016-12-07T01:31:55.907Z,925.45
2016-12-07T01:32:23.757Z,925.46
2016-12-07T01:32:52.199Z,925.42
2016-12-07T01:33:20.056Z,925.38
2016-12-07T01:33:48.212Z,925.37
2016-12-07T01:34:16.367Z,925.38
2016-12-07T01:34:44.183Z,925.33
2016-12-07T01:35:12.344Z,925.34
2016-12-07T01:35:40.205Z,925.37
2016-12-07T01:36:08.369Z,925.34
2016-12-07T01:36:36.057Z,925.34
2016-12-07T01:37:04.170Z,925.34
2016-12-07T01:37:32.313Z,925.29
2016-12-07T01:38:00.219Z,925.28
2016-12-07T01:38:28.130Z,925.22
2016-12-07T01:38:55.909Z,925.22
2016-12-07T01:39:23.731Z,925.22
2016-12-07T01:39:51.941Z,925.24
2016-12-07T01:40:20.376Z,925.18
2016-12-07T01:40:48.088Z,925.15
2016-12-07T01:41:15.919Z,925.15
2016-12-07T01:41:43.761Z,925.12
2016-12-07T01:42:11.585Z,925.09
2016-12-07T01:42:39.682Z,925.08
2016-12-07T01:43:07.538Z,925.08
2016-12-07T01:43:36.023Z,925.09
2016-12-07T01:44:03.793Z,925.07
2016-12-07T01:44:31.911Z,925.06
2016-12-07T01:45:00.043Z,925.05
2016-12-07T01:45:27.896Z,925.07
2016-12-07T01:45:56.007Z,925.07
2016-12-07T01:46:23.825Z,925.05
2016-12-07T01:46:51.690Z,925.06
2016-12-07T01:47:19.542Z,925.03
2016-12-07T01:47:47.296Z,925.03
2016-12-07T01:48:15.622Z,925.03
2016-12-07T01:48:43.746Z,925.02
2016-12-07T01:49:11.849Z,925.02
2016-12-07T01:49:40.275Z,925.05
2016-12-07T01:50:08.097Z,925
2016-12-07T01:50:36.559Z,925.02
2016-12-07T01:51:04.652Z,925.02
2016-12-07T01:51:33.054Z,925.01
2016-12-07T01:52:01.532Z,924.99
2016-12-07T01:52:29.678Z,925.03
2016-12-07T01:52:57.857Z,925.02
2016-12-07T01:53:25.981Z,925.04
2016-12-07T01:53:54.100Z,925.03
2016-12-07T01:54:22.262Z,925.01
2016-12-07T01:54:50.059Z,925.04
2016-12-07T01:55:17.861Z,925.05
2016-12-07T01:55:45.720Z,924.98
2016-12-07T01:56:13.833Z,924.96
2016-12-07T01:56:41.607Z,924.97
2016-12-07T01:57:09.664Z,924.96
2016-12-07T01:57:38.155Z,924.93
2016-12-07T01:58:05.928Z,924.94
2016-12-07T01:58:33.734Z,924.94
2016-12-07T01:59:01.578Z,924.89
2016-12-07T01:59:29.789Z,924.9
2016-12-07T01:59:57.604Z,924.93
2016-12-07T02:00:25.731Z,924.85
2016-12-07T02:00:53.595Z,924.83
2016-12-07T02:01:21.419Z,924.82
2016-12-07T02:01:49.626Z,924.81
2016-12-07T02:02:17.435Z,924.79
2016-12-07T02:02:45.189Z,924.81
2016-12-07T02:03:13.055Z,924.77
2016-12-07T02:03:41.166Z,924.81
2016-12-07T02:04:08.882Z,924.8
2016-12-07T02:04:36.701Z,924.78
2016-12-07T02:05:04.809Z,924.79
2016-12-07T02:05:32.602Z,924.8
2016-12-07T02:06:00.725Z,924.82
2016-12-07T02:06:28.549Z,924.82
2016-12-07T02:06:56.340Z,924.8
2016-12-07T02:07:24.452Z,924.83
2016-12-07T02:07:52.965Z,924.81
2016-12-07T02:08:21.244Z,924.78
2016-12-07T02:08:49.115Z,924.77
2016-12-07T02:09:16.947Z,924.79
2016-12-07T02:09:44.696Z,924.82
2016-12-07T02:10:12.527Z,924.81
2016-12-07T02:10:40.585Z,924.77
2016-12-07T02:11:08.386Z,924.76
2016-12-07T02:11:36.284Z,924.77
2016-12-07T02:12:04.063Z,924.77
2016-12-07T02:12:31.940Z,924.77
2016-12-07T02:12:59.789Z,924.75
2016-12-07T02:13:28.084Z,924.77
2016-12-07T02:13:55.907Z,924.76
2016-12-07T02:14:24.052Z,924.8
2016-12-07T02:14:51.872Z,924.79
2016-12-07T02:15:19.985Z,924.83
2016-12-07T02:15:47.835Z,924.82
2016-12-07T02:16:15.926Z,924.82
2016-12-07T02:16:44.057Z,924.81
2016-12-07T02:17:12.265Z,924.81
2016-12-07T02:17:40.455Z,924.85
2016-12-07T02:18:08.583Z,924.85
2016-12-07T02:18:36.557Z,924.86
2016-12-07T02:19:04.707Z,924.85
2016-12-07T02:19:32.612Z,924.83
2016-12-07T02:20:00.776Z,924.85
2016-12-07T02:20:28.564Z,924.84
2016-12-07T02:20:56.420Z,924.83
2016-12-07T02:21:24.557Z,924.78
2016-12-07T02:21:52.737Z,924.8
2016-12-07T02:22:20.912Z,924.8
2016-12-07T02:22:48.805Z,924.8
2016-12-07T02:23:17.077Z,924.8
2016-12-07T02:23:44.897Z,924.8
2016-12-07T02:24:12.773Z,924.77
2016-12-07T02:24:41.173Z,924.79
2016-12-07T02:25:09.049Z,924.75
2016-12-07T02:25:37.107Z,924.79
2016-12-07T02:26:04.885Z,924.76
2016-12-07T02:26:32.983Z,924.78
2016-12-07T02:27:00.833Z,924.76
2016-12-07T02:27:28.962Z,924.75
2016-12-07T02:27:57.443Z,924.72
2016-12-07T02:28:25.647Z,924.73
2016-12-07T02:28:54.056Z,924.71
2016-12-07T02:29:21.870Z,924.72
2016-12-07T02:29:50.300Z,924.65
2016-12-07T02:30:18.123Z,924.66
2016-12-07T02:30:45.885Z,924.66
2016-12-07T02:31:14.070Z,924.66
2016-12-07T02:31:42.426Z,924.65
2016-12-07T02:32:10.204Z,924.62
2016-12-07T02:32:38.020Z,924.63
2016-12-07T02:33:06.108Z,924.61
2016-12-07T02:33:34.610Z,924.6
2016-12-07T02:34:02.745Z,924.6
2016-12-07T02:34:30.865Z,924.57
2016-12-07T02:35:00.247Z,924.58
2016-12-07T02:35:28.098Z,924.63
2016-12-07T02:35:55.864Z,924.6
2016-12-07T02:36:23.960Z,924.62
2016-12-07T02:36:52.045Z,924.63
2016-12-07T02:37:19.807Z,924.59
2016-12-07T02:37:47.904Z,924.56
2016-12-07T02:38:16.338Z,924.55
2016-12-07T02:38:44.311Z,924.54
2016-12-07T02:39:12.450Z,924.51
2016-12-07T02:39:40.180Z,924.52
2016-12-07T02:40:08.316Z,924.52
2016-12-07T02:40:36.359Z,924.5
2016-12-07T02:41:04.126Z,924.5
2016-12-07T02:41:31.932Z,924.5
2016-12-07T02:41:59.794Z,924.46
2016-12-07T02:42:28.229Z,924.49
2016-12-07T02:42:56.234Z,924.49
2016-12-07T02:43:24.361Z,924.48
2016-12-07T02:43:52.181Z,924.45
2016-12-07T02:44:19.942Z,924.46
2016-12-07T02:44:47.798Z,924.47
2016-12-07T02:45:15.596Z,924.44
2016-12-07T02:45:43.409Z,924.45
2016-12-07T02:46:11.196Z,924.42
2016-12-07T02:46:39.315Z,924.38
2016-12-07T02:47:07.352Z,924.42
2016-12-07T02:47:35.216Z,924.37
2016-12-07T02:48:03.328Z,924.35
2016-12-07T02:48:31.191Z,924.36
2016-12-07T02:48:59.106Z,924.3
2016-12-07T02:49:27.459Z,924.33
2016-12-07T02:49:55.256Z,924.28
2016-12-07T02:50:23.732Z,924.3
2016-12-07T02:50:51.622Z,924.28
2016-12-07T02:51:19.477Z,924.27
2016-12-07T02:51:47.295Z,924.25
2016-12-07T02:52:15.036Z,924.23
2016-12-07T02:52:42.817Z,924.27
2016-12-07T02:53:10.920Z,924.23
2016-12-07T02:54:12.605Z,924.24
2016-12-07T02:54:40.869Z,924.18
2016-12-07T02:55:08.988Z,924.17
2016-12-07T02:55:37.480Z,924.15
2016-12-07T02:56:05.322Z,924.13
2016-12-07T02:56:33.765Z,924.13
2016-12-07T02:57:01.568Z,924.14
2016-12-07T02:57:29.806Z,924.08
2016-12-07T02:57:57.695Z,924.08
2016-12-07T02:58:25.498Z,924.03
2016-12-07T02:58:54.019Z,924.02
2016-12-07T02:59:22.067Z,923.99
2016-12-07T02:59:49.892Z,923.98
2016-12-07T03:00:17.721Z,923.92
2016-12-07T03:00:45.555Z,923.91
2016-12-07T03:01:13.370Z,923.88
2016-12-07T03:01:41.411Z,923.86
2016-12-07T03:02:09.201Z,923.82
2016-12-07T03:02:37.074Z,923.78
2016-12-07T03:03:04.937Z,923.8
2016-12-07T03:03:33.361Z,923.75
2016-12-07T03:04:01.114Z,923.77
2016-12-07T03:04:29.215Z,923.72
2016-12-07T03:04:57.349Z,923.7
2016-12-07T03:05:25.447Z,923.67
2016-12-07T03:05:53.278Z,923.66
2016-12-07T03:06:21.417Z,923.62
2016-12-07T03:06:49.243Z,923.59
2016-12-07T03:07:17.966Z,923.51
2016-12-07T03:07:45.863Z,923.52
2016-12-07T03:08:13.635Z,923.48
2016-12-07T03:08:41.409Z,923.48
2016-12-07T03:09:09.633Z,923.43
2016-12-07T03:09:37.710Z,923.42
2016-12-07T03:10:05.466Z,923.42
2016-12-07T03:10:33.236Z,923.38
2016-12-07T03:11:01.033Z,923.32
2016-12-07T03:11:29.111Z,923.33
2016-12-07T03:11:56.921Z,923.35
2016-12-07T03:12:25.040Z,923.36
2016-12-07T03:12:52.786Z,923.27
2016-12-07T03:13:21.200Z,923.31
2016-12-07T03:13:49.002Z,923.31
2016-12-07T03:14:17.136Z,923.34
2016-12-07T03:14:44.881Z,923.3
2016-12-07T03:15:12.750Z,923.26
2016-12-07T03:15:40.888Z,923.26
2016-12-07T03:16:09.022Z,923.26
2016-12-07T03:16:36.881Z,923.21
2016-12-07T03:17:04.995Z,923.21
2016-12-07T03:17:32.816Z,923.22
2016-12-07T03:18:00.582Z,923.17
2016-12-07T03:18:29.085Z,923.14
2016-12-07T03:18:56.893Z,923.12
2016-12-07T03:19:25.503Z,923.11
2016-12-07T03:19:53.392Z,923.1
2016-12-07T03:20:21.260Z,923.11
2016-12-07T03:20:49.324Z,923.13
2016-12-07T03:21:18.052Z,923.12
2016-12-07T03:21:45.887Z,923.13
2016-12-07T03:22:13.670Z,923.14
2016-12-07T03:22:41.478Z,923.13
2016-12-07T03:23:09.554Z,923.13
2016-12-07T03:23:37.658Z,923.12
2016-12-07T03:24:05.820Z,923.13
2016-12-07T03:24:34.282Z,923.15
2016-12-07T03:25:02.516Z,923.12
2016-12-07T03:25:30.648Z,923.12
2016-12-07T03:25:58.585Z,923.18
2016-12-07T03:26:26.411Z,923.19
2016-12-07T03:26:54.267Z,923.16
2016-12-07T03:27:22.059Z,923.17
2016-12-07T03:27:50.234Z,923.2
2016-12-07T03:28:18.303Z,923.21
2016-12-07T03:28:46.143Z,923.21
2016-12-07T03:29:14.034Z,923.19
2016-12-07T03:29:41.911Z,923.17
2016-12-07T03:30:09.744Z,923.22
2016-12-07T03:30:37.563Z,923.22
2016-12-07T03:31:05.393Z,923.21
2016-12-07T03:31:33.238Z,923.25
2016-12-07T03:32:01.692Z,923.23
2016-12-07T03:32:29.872Z,923.25
2016-12-07T03:32:57.976Z,923.26
2016-12-07T03:33:26.120Z,923.26
2016-12-07T03:33:54.625Z,923.25
2016-12-07T03:34:22.483Z,923.32
2016-12-07T03:34:50.846Z,923.26
2016-12-07T03:35:18.771Z,923.27
2016-12-07T03:35:46.946Z,923.34
2016-12-07T03:36:14.797Z,923.31
2016-12-07T03:36:42.624Z,923.34
2016-12-07T03:37:10.729Z,923.39
2016-12-07T03:37:38.739Z,923.35
2016-12-07T03:38:38.489Z,923.35
2016-12-07T03:39:06.312Z,923.39
2016-12-07T03:39:34.460Z,923.3
2016-12-07T03:40:02.603Z,923.38
2016-12-07T03:40:30.488Z,923.36
2016-12-07T03:40:58.618Z,923.32
2016-12-07T03:41:26.394Z,923.35
2016-12-07T03:41:54.491Z,923.31
2016-12-07T03:42:22.194Z,923.31
2016-12-07T03:42:50.369Z,923.29
2016-12-07T03:43:18.535Z,923.32
2016-12-07T03:43:46.362Z,923.25
2016-12-07T03:44:14.133Z,923.29
2016-12-07T03:44:42.357Z,923.23
2016-12-07T03:45:10.512Z,923.26
2016-12-07T03:45:38.290Z,923.26
2016-12-07T03:46:06.115Z,923.29
2016-12-07T03:46:34.248Z,923.24
2016-12-07T03:47:02.177Z,923.29
2016-12-07T03:47:30.508Z,923.24
2016-12-07T03:47:58.339Z,923.32
2016-12-07T03:48:26.087Z,923.32
2016-12-07T03:48:53.857Z,923.31
2016-12-07T03:49:22.340Z,923.3
2016-12-07T03:49:51.077Z,923.43
2016-12-07T03:50:19.605Z,923.39
2016-12-07T03:50:48.022Z,923.45
2016-12-07T03:51:15.857Z,923.42
2016-12-07T03:51:44.044Z,923.42
2016-12-07T03:52:12.142Z,923.41
2016-12-07T03:52:40.289Z,923.42
2016-12-07T03:53:08.406Z,923.43
2016-12-07T03:53:36.265Z,923.43
2016-12-07T03:54:04.335Z,923.43
2016-12-07T03:54:32.476Z,923.44
2016-12-07T03:55:00.565Z,923.42
2016-12-07T03:55:28.359Z,923.49
2016-12-07T03:55:56.419Z,923.46
2016-12-07T03:56:24.540Z,923.47
2016-12-07T03:56:52.936Z,923.5
2016-12-07T03:57:20.698Z,923.48
2016-12-07T03:57:48.496Z,923.52
2016-12-07T03:58:16.248Z,923.5
2016-12-07T03:58:44.069Z,923.52
2016-12-07T03:59:12.527Z,923.49
2016-12-07T03:59:40.403Z,923.55
2016-12-07T04:00:08.409Z,923.51
2016-12-07T04:00:36.182Z,923.52
2016-12-07T04:01:04.355Z,923.52
2016-12-07T04:01:32.783Z,923.54
2016-12-07T04:02:00.574Z,923.52
2016-12-07T04:02:28.474Z,923.53
2016-12-07T04:02:56.348Z,923.54
2016-12-07T04:03:24.166Z,923.5
2016-12-07T04:03:51.994Z,923.48
2016-12-07T04:04:19.876Z,923.47
2016-12-07T04:04:47.833Z,923.47
2016-12-07T04:05:15.603Z,923.5
2016-12-07T04:05:43.387Z,923.47
2016-12-07T04:06:11.221Z,923.48
2016-12-07T04:06:39.036Z,923.46
2016-12-07T04:07:06.907Z,923.48
2016-12-07T04:07:34.708Z,923.53
2016-12-07T04:08:02.829Z,923.51
2016-12-07T04:08:30.660Z,923.52
2016-12-07T04:08:58.704Z,923.56
2016-12-07T04:09:26.532Z,923.58
2016-12-07T04:09:54.650Z,923.55
2016-12-07T04:10:22.446Z,923.58
2016-12-07T04:10:50.635Z,923.57
2016-12-07T04:11:18.810Z,923.56
2016-12-07T04:11:46.927Z,923.58
2016-12-07T04:12:14.771Z,923.57
2016-12-07T04:12:42.876Z,923.56
2016-12-07T04:13:10.676Z,923.53
2016-12-07T04:13:38.483Z,923.54
2016-12-07T04:14:06.237Z,923.55
2016-12-07T04:14:34.345Z,923.49
2016-12-07T04:15:02.747Z,923.54
2016-12-07T04:15:30.560Z,923.52
2016-12-07T04:15:58.455Z,923.49
2016-12-07T04:16:26.304Z,923.5
2016-12-07T04:16:54.129Z,923.47
2016-12-07T04:17:22.230Z,923.51
2016-12-07T04:17:50.397Z,923.48
2016-12-07T04:18:18.536Z,923.51
2016-12-07T04:18:46.361Z,923.51
2016-12-07T04:19:14.170Z,923.51
2016-12-07T04:19:42.514Z,923.5
2016-12-07T04:20:10.652Z,923.48
2016-12-07T04:20:38.487Z,923.44
2016-12-07T04:21:06.659Z,923.49
2016-12-07T04:21:34.429Z,923.46
2016-12-07T04:22:02.787Z,923.45
2016-12-07T04:22:30.848Z,923.47
2016-12-07T04:22:58.701Z,923.46
2016-12-07T04:23:26.562Z,923.43
2016-12-07T04:23:54.794Z,923.42
2016-12-07T04:24:23.218Z,923.45
2016-12-07T04:24:51.006Z,923.45
2016-12-07T04:25:18.935Z,923.43
2016-12-07T04:25:46.748Z,923.44
2016-12-07T04:26:14.658Z,923.39
2016-12-07T04:26:42.468Z,923.38
2016-12-07T04:27:10.533Z,923.36
2016-12-07T04:27:38.375Z,923.38
2016-12-07T04:28:06.115Z,923.33
2016-12-07T04:28:34.247Z,923.29
2016-12-07T04:29:02.722Z,923.28
2016-12-07T04:29:30.916Z,923.28
2016-12-07T04:29:58.983Z,923.26
2016-12-07T04:30:27.094Z,923.27
2016-12-07T04:30:55.246Z,923.22
2016-12-07T04:31:23.125Z,923.21
2016-12-07T04:31:50.882Z,923.17
2016-12-07T04:32:19.285Z,923.18
2016-12-07T04:32:47.055Z,923.16
2016-12-07T04:33:14.871Z,923.16
2016-12-07T04:33:42.625Z,923.13
2016-12-07T04:34:10.422Z,923.11
2016-12-07T04:34:38.173Z,923.08
2016-12-07T04:35:06.197Z,923.1
2016-12-07T04:35:34.580Z,923.09
2016-12-07T04:36:02.651Z,923.08
2016-12-07T04:36:30.500Z,923.03
2016-12-07T04:36:58.275Z,923.1
2016-12-07T04:37:26.054Z,923.1
2016-12-07T04:37:53.847Z,923.12
2016-12-07T04:38:21.969Z,923.14
2016-12-07T04:38:49.781Z,923.12
2016-12-07T04:39:17.592Z,923.11
2016-12-07T04:39:45.347Z,923.15
2016-12-07T04:40:13.118Z,923.15
2016-12-07T04:40:40.979Z,923.1
2016-12-07T04:41:08.959Z,923.13
2016-12-07T04:41:37.087Z,923.09
2016-12-07T04:42:04.812Z,923.09
2016-12-07T04:42:32.915Z,923.1
2016-12-07T04:43:01.111Z,923.12
2016-12-07T04:43:29.264Z,923.13
2016-12-07T04:43:57.237Z,923.07
2016-12-07T04:44:25.695Z,923.06
2016-12-07T04:44:54.089Z,923.11
2016-12-07T04:45:22.048Z,923.06
2016-12-07T04:45:49.855Z,923.1
2016-12-07T04:46:17.662Z,923.04
2016-12-07T04:46:45.512Z,923.04
2016-12-07T04:47:14.013Z,923.07
2016-12-07T04:47:41.780Z,922.99
2016-12-07T04:48:09.952Z,923.01
2016-12-07T04:48:38.379Z,922.96
2016-12-07T04:49:07.116Z,922.96
2016-12-07T04:49:34.854Z,922.97
2016-12-07T04:50:02.655Z,922.97
2016-12-07T04:50:31.139Z,922.98
2016-12-07T04:50:59.006Z,922.95
2016-12-07T04:51:26.835Z,922.94
2016-12-07T04:51:55.280Z,922.93
2016-12-07T04:52:23.140Z,922.91
2016-12-07T04:52:50.965Z,922.93
2016-12-07T04:53:19.094Z,922.93
2016-12-07T04:53:46.898Z,922.93
2016-12-07T04:54:15.307Z,922.96
2016-12-07T04:54:43.401Z,922.93
2016-12-07T04:55:11.481Z,922.92
2016-12-07T04:55:39.279Z,923
2016-12-07T04:56:07.043Z,922.98
2016-12-07T04:56:35.139Z,922.98
2016-12-07T04:57:03.005Z,923
2016-12-07T04:57:30.855Z,923
2016-12-07T04:57:59.395Z,923.03
2016-12-07T04:58:27.282Z,923.04
2016-12-07T04:58:55.425Z,923.08
2016-12-07T04:59:23.243Z,923.13
2016-12-07T04:59:51.367Z,923.07
2016-12-07T05:00:19.515Z,923.13
2016-12-07T05:00:47.625Z,923.16
2016-12-07T05:01:15.778Z,923.18
2016-12-07T05:01:43.816Z,923.17
2016-12-07T05:02:11.603Z,923.16
2016-12-07T05:02:39.381Z,923.19
2016-12-07T05:03:07.485Z,923.25
2016-12-07T05:03:35.302Z,923.27
2016-12-07T05:04:03.822Z,923.26
2016-12-07T05:04:31.619Z,923.22
2016-12-07T05:04:59.735Z,923.27
2016-12-07T05:05:27.719Z,923.27
2016-12-07T05:05:55.794Z,923.27
2016-12-07T05:06:23.597Z,923.28
2016-12-07T05:06:52.055Z,923.26
2016-12-07T05:07:20.258Z,923.3
2016-12-07T05:07:48.089Z,923.32
2016-12-07T05:08:16.493Z,923.33
2016-12-07T05:08:44.958Z,923.29
2016-12-07T05:09:13.160Z,923.36
2016-12-07T05:09:40.960Z,923.33
2016-12-07T05:10:08.766Z,923.35
2016-12-07T05:10:37.463Z,923.34
2016-12-07T05:11:05.618Z,923.35
2016-12-07T05:11:33.406Z,923.37
2016-12-07T05:12:01.591Z,923.4
2016-12-07T05:12:29.422Z,923.36
2016-12-07T05:12:57.212Z,923.31
2016-12-07T05:13:24.980Z,923.31
2016-12-07T05:13:53.207Z,923.3
2016-12-07T05:14:20.965Z,923.28
2016-12-07T05:14:49.106Z,923.25
2016-12-07T05:15:17.410Z,923.27
2016-12-07T05:15:46.258Z,923.21
2016-12-07T05:16:14.114Z,923.21
2016-12-07T05:16:42.543Z,923.25
2016-12-07T05:17:10.407Z,923.23
2016-12-07T05:17:38.176Z,923.21
2016-12-07T05:18:06.054Z,923.25
2016-12-07T05:18:33.955Z,923.26
2016-12-07T05:19:02.053Z,923.23
2016-12-07T05:19:29.964Z,923.2
2016-12-07T05:19:57.795Z,923.22
2016-12-07T05:20:25.551Z,923.18
2016-12-07T05:20:53.352Z,923.19
2016-12-07T05:21:21.154Z,923.22
2016-12-07T05:21:48.923Z,923.15
2016-12-07T05:22:17.039Z,923.13
2016-12-07T05:22:45.063Z,923.15
2016-12-07T05:23:12.868Z,923.14
2016-12-07T05:23:40.642Z,923.14
2016-12-07T05:24:09.304Z,923.13
2016-12-07T05:24:37.417Z,923.15
2016-12-07T05:25:05.222Z,923.11
2016-12-07T05:25:33.197Z,923.15
2016-12-07T05:26:01.301Z,923.13
2016-12-07T05:26:29.084Z,923.15
2016-12-07T05:26:57.128Z,923.16
2016-12-07T05:27:25.799Z,923.16
2016-12-07T05:27:54.291Z,923.11
2016-12-07T05:28:22.732Z,923.09
2016-12-07T05:28:50.894Z,923.11
2016-12-07T05:29:19.014Z,923.09
2016-12-07T05:29:46.958Z,923.09
2016-12-07T05:30:14.803Z,923.04
2016-12-07T05:30:42.800Z,923.07
2016-12-07T05:31:10.550Z,923.13
2016-12-07T05:31:38.667Z,923.14
2016-12-07T05:32:06.485Z,923.17
2016-12-07T05:32:34.638Z,923.2
2016-12-07T05:33:02.473Z,923.22
2016-12-07T05:33:30.226Z,923.27
2016-12-07T05:33:58.479Z,923.24
2016-12-07T05:34:26.297Z,923.23
2016-12-07T05:34:54.185Z,923.28
2016-12-07T05:35:21.985Z,923.24
2016-12-07T05:35:50.086Z,923.21
2016-12-07T05:36:18.468Z,923.2
2016-12-07T05:36:46.292Z,923.16
2016-12-07T05:37:14.109Z,923.14
2016-12-07T05:37:41.857Z,923.11
2016-12-07T05:38:09.689Z,923.04
2016-12-07T05:38:37.780Z,923
2016-12-07T05:39:05.559Z,923.04
2016-12-07T05:39:33.442Z,922.97
2016-12-07T05:40:01.609Z,922.93
2016-12-07T05:40:29.392Z,922.94
2016-12-07T05:40:57.588Z,922.93
2016-12-07T05:41:25.762Z,922.91
2016-12-07T05:41:53.596Z,922.9
2016-12-07T05:42:21.482Z,922.95
2016-12-07T05:42:49.329Z,922.97
2016-12-07T05:43:17.422Z,922.97
2016-12-07T05:43:45.476Z,922.97
2016-12-07T05:44:13.353Z,923
2016-12-07T05:44:41.546Z,922.98
2016-12-07T05:45:09.684Z,922.96
2016-12-07T05:45:38.119Z,922.93
2016-12-07T05:46:05.926Z,922.95
2016-12-07T05:46:33.707Z,922.94
2016-12-07T05:47:02.231Z,922.89
2016-12-07T05:47:30.061Z,922.93
2016-12-07T05:47:58.315Z,922.9
2016-12-07T05:48:26.849Z,922.9
2016-12-07T05:48:54.661Z,922.91
2016-12-07T05:49:22.497Z,922.86
2016-12-07T05:49:50.325Z,922.87
2016-12-07T05:50:18.192Z,922.87
2016-12-07T05:50:46.161Z,922.84
2016-12-07T05:51:14.803Z,922.84
2016-12-07T05:51:43.497Z,922.83
2016-12-07T05:52:11.350Z,922.82
2016-12-07T05:52:39.536Z,922.85
2016-12-07T05:53:07.426Z,922.86
2016-12-07T05:53:35.247Z,922.84